Time;durP1;ratioP1;P1;durP2;ratioP2;P2;SDS_P1;SDS_P2;PMS_P1;PMS_P2;Temp;Humidity;BMP_temperature;BMP_pressure;BME280_temperature;BME280_humidity;BME280_pressure;Samples;Min_cycle;Max_cycle;Signal;HPM_P1;HPM_P2
2022/04/10 00:02:17;;;;;;;10.80;2.63;;;1.90;99.90;;;;;;4900016;29;20401;-89
2022/04/10 00:04:42;;;;;;;9.80;2.77;;;1.90;99.90;;;;;;4898707;29;20048;-89
2022/04/10 00:07:08;;;;;;;12.33;2.80;;;1.80;99.90;;;;;;4917165;29;20040;-89
2022/04/10 00:09:37;;;;;;;12.43;2.73;;;1.90;99.90;;;;;;4900624;29;20496;-89
2022/04/10 00:12:06;;;;;;;10.63;2.80;;;1.80;99.90;;;;;;4899031;29;20191;-89
2022/04/10 00:14:32;;;;;;;12.20;2.50;;;2.00;99.90;;;;;;4899677;29;20131;-88
2022/04/10 00:16:57;;;;;;;11.53;2.77;;;1.70;99.90;;;;;;4915681;29;20171;-89
2022/04/10 00:19:23;;;;;;;14.83;2.60;;;1.70;99.90;;;;;;4916998;29;20055;-89
2022/04/10 00:21:49;;;;;;;11.70;2.37;;;1.70;99.90;;;;;;4899592;29;20432;-88
2022/04/10 00:24:15;;;;;;;13.70;2.63;;;;;;;;;;4916227;29;20505;-88
2022/04/10 00:26:43;;;;;;;12.20;2.57;;;1.80;99.90;;;;;;4916174;29;20375;-89
2022/04/10 00:29:14;;;;;;;13.40;2.90;;;2.90;99.90;;;;;;4919434;29;20441;-88
2022/04/10 00:31:40;;;;;;;13.87;3.17;;;1.60;99.90;;;;;;4903282;29;20131;-91
2022/04/10 00:34:09;;;;;;;10.73;2.73;;;1.70;99.90;;;;;;4902946;29;20040;-89
2022/04/10 00:36:34;;;;;;;12.77;2.73;;;1.80;99.90;;;;;;4916938;29;20044;-89
2022/04/10 00:39:12;;;;;;;11.67;2.73;;;2.00;99.90;;;;;;4899289;29;20107;-89
2022/04/10 00:41:41;;;;;;;15.40;2.80;;;1.70;99.90;;;;;;4899597;29;20396;-90
2022/04/10 00:44:13;;;;;;;16.63;3.53;;;2.70;99.90;;;;;;4917811;29;20123;-90
2022/04/10 00:46:42;;;;;;;15.73;3.33;;;3.60;99.90;;;;;;4920225;29;20048;-89
2022/04/10 00:49:08;;;;;;;12.13;3.37;;;0.80;99.90;;;;;;4903208;29;20040;-89
2022/04/10 00:51:40;;;;;;;15.80;3.40;;;1.80;99.90;;;;;;4920719;29;20062;-89
2022/04/10 00:54:21;;;;;;;11.93;2.90;;;1.60;99.90;;;;;;4919739;29;20040;-89
2022/04/10 00:56:47;;;;;;;12.50;3.10;;;2.20;99.90;;;;;;4903285;29;20067;-89
2022/04/10 00:59:22;;;;;;;14.80;2.70;;;1.80;99.90;;;;;;4919487;29;20051;-88
2022/04/10 01:01:49;;;;;;;12.40;3.17;;;3.20;99.90;;;;;;4902778;29;20044;-88
2022/04/10 01:04:18;;;;;;;14.20;3.13;;;3.50;99.90;;;;;;4920022;29;20044;-88
2022/04/10 01:06:47;;;;;;;14.73;3.80;;;1.90;99.90;;;;;;4919052;29;20051;-88
2022/04/10 01:09:20;;;;;;;15.80;3.07;;;1.70;99.90;;;;;;4919229;29;20060;-89
2022/04/10 01:11:46;;;;;;;10.40;2.50;;;2.30;99.90;;;;;;4902701;29;20088;-89
2022/04/10 01:14:13;;;;;;;9.87;2.20;;;1.60;99.90;;;;;;4902482;29;20151;-88
2022/04/10 01:16:39;;;;;;;10.70;2.20;;;1.40;99.90;;;;;;4919957;29;20433;-89
2022/04/10 01:19:06;;;;;;;10.47;2.67;;;1.40;99.90;;;;;;4902269;29;20052;-89
2022/04/10 01:21:38;;;;;;;10.70;2.50;;;1.20;99.90;;;;;;4919111;29;20048;-88
2022/04/10 01:24:04;;;;;;;10.97;2.33;;;1.30;99.90;;;;;;4919205;29;20048;-89
2022/04/10 01:26:37;;;;;;;10.17;2.60;;;1.30;99.90;;;;;;4903194;29;20044;-89
2022/04/10 01:29:05;;;;;;;11.47;2.30;;;1.00;99.90;;;;;;4919083;29;20040;-89
2022/04/10 01:31:35;;;;;;;12.57;2.63;;;2.10;99.90;;;;;;4919479;29;20078;-89
2022/04/10 01:34:06;;;;;;;13.03;2.60;;;1.00;99.90;;;;;;4902591;29;20052;-89
2022/04/10 01:36:36;;;;;;;14.17;2.90;;;0.80;99.90;;;;;;4922413;29;20040;-89
2022/04/10 01:39:09;;;;;;;14.30;3.40;;;0.70;99.90;;;;;;4902128;29;20048;-89
2022/04/10 01:41:37;;;;;;;11.57;2.63;;;0.90;99.90;;;;;;4901940;29;20040;-89
2022/04/10 01:44:05;;;;;;;10.87;2.90;;;1.20;99.90;;;;;;4901611;29;20060;-89
2022/04/10 01:46:32;;;;;;;10.70;2.83;;;2.70;99.90;;;;;;4919372;29;20119;-88
2022/04/10 01:49:01;;;;;;;13.60;2.60;;;1.00;99.90;;;;;;4901271;29;20052;-89
2022/04/10 01:51:38;;;;;;;16.07;3.43;;;2.40;99.90;;;;;;4902255;29;20044;-90
2022/04/10 01:54:04;;;;;;;14.63;3.13;;;1.60;99.90;;;;;;4919210;29;20131;-90
2022/04/10 01:56:33;;;;;;;16.77;2.70;;;1.10;99.90;;;;;;4917277;29;20139;-89
2022/04/10 01:59:10;;;;;;;11.67;3.43;;;1.00;99.90;;;;;;4901509;29;20054;-90
2022/04/10 02:01:39;;;;;;;14.33;2.80;;;3.10;99.90;;;;;;4918915;29;20044;-88
2022/04/10 02:04:05;;;;;;;15.47;2.93;;;1.00;99.90;;;;;;4916946;29;20496;-89
2022/04/10 02:06:30;;;;;;;13.00;3.43;;;1.10;99.90;;;;;;4900778;29;20056;-88
2022/04/10 02:08:56;;;;;;;14.20;3.00;;;3.10;99.90;;;;;;4918016;29;20048;-90
2022/04/10 02:11:30;;;;;;;13.17;3.33;;;0.70;99.90;;;;;;4901334;29;20107;-89
2022/04/10 02:13:59;;;;;;;11.90;3.23;;;0.90;99.90;;;;;;4901912;29;20131;-89
2022/04/10 02:16:28;;;;;;;13.13;3.60;;;1.00;99.90;;;;;;4918121;29;20067;-89
2022/04/10 02:18:53;;;;;;;15.23;3.80;;;1.00;99.90;;;;;;4918571;29;20054;-89
2022/04/10 02:21:31;;;;;;;14.87;4.23;;;1.20;99.90;;;;;;4901473;29;20052;-89
2022/04/10 02:23:57;;;;;;;14.37;3.03;;;1.20;99.90;;;;;;4917846;29;20039;-89
2022/04/10 02:26:22;;;;;;;13.57;2.90;;;1.30;99.90;;;;;;4901360;29;20107;-88
2022/04/10 02:28:48;;;;;;;14.63;2.80;;;1.10;99.90;;;;;;4918271;29;20164;-89
2022/04/10 02:31:14;;;;;;;11.23;2.90;;;1.10;99.90;;;;;;4917977;29;20052;-90
2022/04/10 02:33:39;;;;;;;15.27;3.13;;;1.10;99.90;;;;;;4918656;29;20048;-89
2022/04/10 02:36:06;;;;;;;11.43;2.83;;;1.00;99.90;;;;;;4901320;29;20500;-89
2022/04/10 02:38:35;;;;;;;11.23;2.77;;;3.00;99.90;;;;;;4921690;29;20032;-89
2022/04/10 02:41:01;;;;;;;13.23;2.87;;;1.30;99.90;;;;;;4901001;29;20048;-88
2022/04/10 02:43:39;;;;;;;15.10;3.40;;;2.50;99.90;;;;;;4901001;29;20058;-89
2022/04/10 02:46:07;;;;;;;14.13;2.67;;;0.50;99.90;;;;;;4916909;29;20048;-88
2022/04/10 02:48:36;;;;;;;12.90;2.70;;;2.10;99.90;;;;;;4918445;29;20412;-89
2022/04/10 02:51:02;;;;;;;13.67;3.40;;;0.60;99.90;;;;;;4918101;29;20048;-89
2022/04/10 02:53:28;;;;;;;16.27;3.10;;;0.80;99.90;;;;;;4901175;29;20059;-89
2022/04/10 02:55:54;;;;;;;15.80;3.20;;;0.80;99.90;;;;;;4917863;29;20056;-89
2022/04/10 02:58:20;;;;;;;12.53;2.60;;;0.80;99.90;;;;;;4901572;29;20111;-89
2022/04/10 03:00:45;;;;;;;12.57;2.97;;;0.90;99.90;;;;;;4900278;29;20091;-88
2022/04/10 03:03:11;;;;;;;14.70;3.33;;;0.80;99.90;;;;;;4901208;29;20400;-88
2022/04/10 03:05:36;;;;;;;10.87;3.03;;;1.00;99.90;;;;;;4917853;29;20032;-89
2022/04/10 03:08:02;;;;;;;13.47;3.70;;;0.70;99.90;;;;;;4900434;29;20568;-89
2022/04/10 03:10:28;;;;;;;11.03;2.97;;;0.90;99.90;;;;;;4901083;29;20044;-89
2022/04/10 03:12:53;;;;;;;12.10;3.30;;;0.80;99.90;;;;;;4900436;29;20047;-89
2022/04/10 03:15:19;;;;;;;13.70;3.10;;;0.80;99.90;;;;;;4901237;29;20420;-89
2022/04/10 03:17:44;;;;;;;11.43;3.63;;;0.70;99.90;;;;;;4901647;29;20103;-89
2022/04/10 03:20:11;;;;;;;13.10;3.93;;;0.80;99.90;;;;;;4922410;29;20100;-88
2022/04/10 03:22:37;;;;;;;14.43;2.73;;;0.90;99.90;;;;;;4929202;29;20072;-89
2022/04/10 03:25:03;;;;;;;16.27;2.93;;;1.00;99.90;;;;;;4911013;29;20079;-90
2022/04/10 03:27:29;;;;;;;12.33;2.83;;;1.10;99.90;;;;;;4902024;29;20389;-89
2022/04/10 03:29:54;;;;;;;13.77;2.90;;;1.00;99.90;;;;;;4900944;29;20448;-89
2022/04/10 03:32:20;;;;;;;13.73;2.90;;;0.90;99.90;;;;;;4916157;29;20043;-88
2022/04/10 03:34:45;;;;;;;17.13;3.70;;;1.10;99.90;;;;;;4916375;29;20048;-89
2022/04/10 03:37:11;;;;;;;17.70;4.10;;;1.10;99.90;;;;;;4900890;29;20087;-89
2022/04/10 03:39:37;;;;;;;13.13;3.37;;;1.10;99.90;;;;;;4917823;29;20402;-89
2022/04/10 03:42:03;;;;;;;15.30;3.50;;;1.10;99.90;;;;;;4904266;29;20052;-89
2022/04/10 03:44:28;;;;;;;16.37;3.33;;;1.50;99.90;;;;;;4917253;29;20052;-90
2022/04/10 03:46:54;;;;;;;13.20;2.83;;;1.50;99.90;;;;;;4917306;29;20047;-89
2022/04/10 03:49:19;;;;;;;16.40;3.77;;;1.60;99.90;;;;;;4899754;29;20408;-89
2022/04/10 03:51:45;;;;;;;14.13;3.47;;;1.80;99.90;;;;;;4917356;29;20122;-89
2022/04/10 03:54:11;;;;;;;14.40;2.97;;;1.80;99.90;;;;;;4900033;29;20119;-89
2022/04/10 03:56:36;;;;;;;32.27;14.40;;;1.70;99.90;;;;;;4899563;29;20048;-89
2022/04/10 03:59:02;;;;;;;18.13;9.33;;;1.70;99.90;;;;;;4916686;29;20473;-89
2022/04/10 04:01:28;;;;;;;24.17;11.00;;;1.80;99.90;;;;;;4916975;29;20100;-89
2022/04/10 04:03:53;;;;;;;22.17;9.60;;;1.80;99.90;;;;;;4898844;29;20491;-89
2022/04/10 04:06:19;;;;;;;21.97;8.23;;;1.80;99.90;;;;;;4899193;29;20048;-90
2022/04/10 04:08:44;;;;;;;11.80;3.07;;;2.30;99.90;;;;;;4899584;29;20047;-89
2022/04/10 04:11:10;;;;;;;25.67;10.63;;;1.70;99.90;;;;;;4916339;29;20051;-89
2022/04/10 04:13:40;;;;;;;107.60;45.47;;;1.70;99.90;;;;;;4899754;29;20134;-89
2022/04/10 04:16:06;;;;;;;14.10;4.13;;;1.70;99.90;;;;;;4915858;29;20044;-90
2022/04/10 04:18:32;;;;;;;13.57;3.10;;;1.80;99.90;;;;;;4916439;29;20404;-91
2022/04/10 04:20:58;;;;;;;13.07;2.80;;;3.00;99.90;;;;;;4902759;29;20075;-91
2022/04/10 04:23:24;;;;;;;61.53;28.47;;;1.90;99.90;;;;;;4916797;29;20467;-91
2022/04/10 04:25:50;;;;;;;10.87;2.50;;;1.90;99.90;;;;;;4900259;29;20048;-89
2022/04/10 04:28:16;;;;;;;16.67;5.63;;;1.70;99.90;;;;;;4916947;29;20043;-89
2022/04/10 04:30:41;;;;;;;11.17;2.40;;;1.60;99.90;;;;;;4916389;29;20108;-89
2022/04/10 04:33:07;;;;;;;13.03;4.63;;;1.60;99.90;;;;;;4916522;29;20052;-89
2022/04/10 04:35:33;;;;;;;44.87;17.63;;;1.40;99.90;;;;;;4916955;29;20044;-89
2022/04/10 04:38:00;;;;;;;18.40;7.27;;;1.50;99.90;;;;;;4898643;29;20048;-89
2022/04/10 04:40:26;;;;;;;20.47;6.93;;;1.40;99.90;;;;;;4899684;29;20132;-88
2022/04/10 04:42:52;;;;;;;68.23;26.87;;;1.50;99.90;;;;;;4899808;29;20044;-88
2022/04/10 04:45:18;;;;;;;21.60;8.17;;;2.20;99.90;;;;;;4901168;29;20056;-88
2022/04/10 04:47:44;;;;;;;82.47;34.27;;;2.70;99.90;;;;;;4916245;29;20060;-88
2022/04/10 04:50:10;;;;;;;72.37;33.07;;;1.50;99.90;;;;;;4916565;29;20048;-89
2022/04/10 04:52:36;;;;;;;66.70;30.70;;;1.50;99.90;;;;;;4898752;29;20412;-88
2022/04/10 04:55:01;;;;;;;8.67;2.40;;;1.20;99.90;;;;;;4916854;29;20080;-89
2022/04/10 04:57:27;;;;;;;9.23;2.50;;;1.70;99.90;;;;;;4899309;29;20051;-88
2022/04/10 04:59:53;;;;;;;9.47;2.23;;;2.70;99.90;;;;;;4898929;29;20439;-88
2022/04/10 05:02:18;;;;;;;14.97;6.27;;;1.60;99.90;;;;;;4899058;29;20052;-88
2022/04/10 05:04:54;;;;;;;11.30;3.47;;;1.50;99.90;;;;;;4899213;29;20067;-88
2022/04/10 05:07:20;;;;;;;14.03;4.77;;;1.30;99.90;;;;;;4898991;29;20110;-88
2022/04/10 05:09:48;;;;;;;9.20;2.30;;;1.40;99.90;;;;;;4916285;29;20056;-88
2022/04/10 05:12:14;;;;;;;37.97;20.77;;;1.80;99.90;;;;;;4915859;29;20048;-88
2022/04/10 05:14:39;;;;;;;16.83;6.20;;;1.30;99.90;;;;;;4900303;29;20389;-89
2022/04/10 05:17:05;;;;;;;10.97;4.07;;;1.40;99.90;;;;;;4898993;29;20052;-89
2022/04/10 05:19:31;;;;;;;12.23;3.27;;;1.50;99.90;;;;;;4898603;29;20056;-89
2022/04/10 05:21:56;;;;;;;13.07;5.37;;;1.50;99.90;;;;;;4915814;29;20055;-89
2022/04/10 05:24:22;;;;;;;10.97;3.10;;;1.50;99.90;;;;;;4899072;29;20071;-89
2022/04/10 05:26:47;;;;;;;25.23;14.33;;;1.70;99.90;;;;;;4915433;29;20048;-89
2022/04/10 05:29:13;;;;;;;21.40;8.30;;;1.90;99.90;;;;;;4900112;29;20428;-88
2022/04/10 05:31:38;;;;;;;21.73;10.13;;;1.70;99.90;;;;;;4902462;29;20056;-89
2022/04/10 05:34:04;;;;;;;12.77;4.00;;;1.70;99.90;;;;;;4901875;29;20452;-88
2022/04/10 05:36:29;;;;;;;15.83;5.67;;;1.80;99.90;;;;;;4919833;29;20465;-88
2022/04/10 05:38:55;;;;;;;22.97;11.97;;;1.80;99.90;;;;;;4902541;29;20099;-89
2022/04/10 05:41:21;;;;;;;29.30;15.00;;;2.00;99.90;;;;;;4918276;29;20087;-89
2022/04/10 05:43:47;;;;;;;33.63;20.20;;;1.80;99.90;;;;;;4902086;29;20075;-89
2022/04/10 05:46:12;;;;;;;14.57;6.80;;;2.20;99.90;;;;;;4906008;29;20084;-89
2022/04/10 05:48:38;;;;;;;17.50;7.53;;;2.00;99.90;;;;;;4902227;29;20052;-88
2022/04/10 05:51:03;;;;;;;15.63;3.90;;;1.80;99.90;;;;;;4918833;29;20524;-89
2022/04/10 05:53:29;;;;;;;13.33;5.17;;;1.80;99.90;;;;;;4902175;29;20095;-90
2022/04/10 05:55:55;;;;;;;11.77;2.93;;;1.90;99.90;;;;;;4901238;29;20048;-88
2022/04/10 05:58:20;;;;;;;15.60;3.70;;;1.90;99.90;;;;;;4902425;29;20059;-89
2022/04/10 06:00:46;;;;;;;14.33;3.67;;;2.00;99.90;;;;;;4918998;29;20119;-88
2022/04/10 06:03:12;;;;;;;14.57;4.93;;;2.10;99.90;;;;;;4901102;29;20040;-89
2022/04/10 06:06:08;;;;;;;18.75;5.18;;;2.10;99.90;;;;;;4901807;29;20048;-90
2022/04/10 06:08:34;;;;;;;16.03;4.90;;;2.10;99.90;;;;;;4902239;29;20107;-88
2022/04/10 06:11:15;;;;;;;12.13;3.70;;;2.20;99.90;;;;;;4906525;29;20052;-95
2022/04/10 06:13:40;;;;;;;14.40;3.20;;;2.30;99.90;;;;;;4933601;29;20040;-89
2022/04/10 06:16:27;;;;;;;14.43;3.10;;;2.30;99.90;;;;;;4931780;29;20129;-92
2022/04/10 06:19:08;;;;;;;14.20;3.87;;;1.60;99.90;;;;;;4921735;29;20062;-95
2022/04/10 06:21:52;;;;;;;12.43;3.20;;;2.10;99.90;;;;;;4904203;29;20515;-92
2022/04/10 06:24:20;;;;;;;;;;;3.00;99.90;;;;;;4919702;29;20048;-92
2022/04/10 06:26:51;;;;;;;12.40;2.77;;;4.40;99.90;;;;;;4903145;29;19973;-91
2022/04/10 06:29:23;;;;;;;11.80;2.50;;;3.20;99.90;;;;;;4907807;29;20496;-92
2022/04/10 06:32:12;;;;;;;10.27;2.70;;;3.20;99.90;;;;;;4918954;29;20044;-92
2022/04/10 06:34:37;;;;;;;10.00;1.87;;;3.40;99.90;;;;;;4865922;29;20520;-93
2022/04/10 06:37:12;;;;;;;9.63;1.97;;;3.20;99.90;;;;;;4902705;29;20061;-93
2022/04/10 06:39:38;;;;;;;10.50;1.97;;;3.40;99.90;;;;;;4902780;29;20195;-92
2022/04/10 06:42:08;;;;;;;12.47;4.87;;;3.30;99.90;;;;;;4902373;29;20096;-95
2022/04/10 06:44:37;;;;;;;9.17;3.27;;;3.10;99.90;;;;;;4904151;29;20063;-91
2022/04/10 06:47:13;;;;;;;8.63;2.13;;;3.40;99.90;;;;;;4901793;29;20069;-94
2022/04/10 06:49:38;;;;;;;10.00;2.83;;;4.70;99.90;;;;;;4927271;29;20579;-94
2022/04/10 06:52:16;;;;;;;9.60;2.77;;;4.70;99.90;;;;;;4901284;29;20083;-89
2022/04/10 06:54:57;;;;;;;14.60;4.80;;;3.50;99.90;;;;;;4900964;29;20048;-88
2022/04/10 06:57:23;;;;;;;9.00;2.40;;;3.40;99.90;;;;;;4918187;29;20044;-87
2022/04/10 06:59:48;;;;;;;9.90;2.53;;;3.80;99.90;;;;;;4917136;29;20601;-86
2022/04/10 07:02:14;;;;;;;6.33;1.90;;;3.70;99.90;;;;;;4917822;29;20615;-86
2022/04/10 07:04:45;;;;;;;6.80;1.63;;;3.80;99.90;;;;;;4942109;23;20068;-94
2022/04/10 07:07:23;;;;;;;8.50;2.00;;;3.60;99.90;;;;;;4900579;29;20056;-90
2022/04/10 07:09:48;;;;;;;6.80;2.20;;;3.60;99.90;;;;;;4900977;29;20389;-92
2022/04/10 07:12:17;;;;;;;9.47;3.33;;;4.30;99.90;;;;;;4900008;29;20047;-89
2022/04/10 07:14:43;;;;;;;10.97;4.17;;;3.50;99.90;;;;;;4901427;29;20187;-89
2022/04/10 07:17:15;;;;;;;10.40;2.33;;;3.60;99.90;;;;;;4901447;29;20146;-93
2022/04/10 07:19:40;;;;;;;13.70;8.07;;;4.90;99.90;;;;;;4900031;29;20074;-90
2022/04/10 07:24:53;;;;;;;9.43;2.00;;;3.90;99.90;;;;;;4899751;29;20408;-89
2022/04/10 07:29:57;;;;;;;9.93;3.23;;;4.40;99.90;;;;;;4913271;23;20079;-89
2022/04/10 07:37:58;;;;;;;8.67;2.53;;;4.80;99.90;;;;;;4901807;29;20088;-92
2022/04/10 07:40:33;;;;;;;7.80;2.10;;;4.50;99.90;;;;;;4899880;29;20381;-89
2022/04/10 07:43:02;;;;;;;6.63;1.83;;;4.00;99.90;;;;;;4917476;29;20083;-91
2022/04/10 07:48:48;;;;;;;8.17;1.90;;;4.90;99.90;;;;;;4899312;29;20127;-89
2022/04/10 07:51:23;;;;;;;8.43;1.83;;;4.80;99.90;;;;;;4900571;29;20059;-88
2022/04/10 07:54:06;;;;;;;10.80;2.20;;;4.90;99.90;;;;;;4899019;29;20040;-88
2022/04/10 07:56:43;;;;;;;12.80;1.95;;;4.90;99.90;;;;;;4917351;29;20512;-88
2022/04/10 07:59:16;;;;;;;9.80;2.00;;;4.20;99.90;;;;;;4917981;29;20119;-90
2022/04/10 08:01:56;;;;;;;7.77;1.70;;;5.60;99.90;;;;;;4915020;29;20127;-90
2022/04/10 08:04:34;;;;;;;11.63;2.10;;;5.00;99.90;;;;;;4916997;29;20055;-90
2022/04/10 08:07:00;;;;;;;10.60;1.93;;;7.00;99.90;;;;;;4899729;29;20046;-88
2022/04/10 08:09:41;;;;;;;8.43;2.30;;;5.20;99.90;;;;;;4916208;29;20048;-89
2022/04/10 08:12:07;;;;;;;7.83;2.40;;;5.20;99.90;;;;;;4916651;29;20044;-88
2022/04/10 08:14:32;;;;;;;8.83;1.93;;;5.60;99.90;;;;;;4900293;29;20455;-89
2022/04/10 08:17:16;;;;;;;9.17;2.00;;;5.70;99.90;;;;;;4915710;29;20436;-89
2022/04/10 08:19:41;;;;;;;9.75;1.80;;;5.80;99.90;;;;;;4899709;29;20048;-88
2022/04/10 08:22:07;;;;;;;10.03;2.20;;;6.00;99.90;;;;;;4916501;29;20378;-88
2022/04/10 08:24:43;;;;;;;8.37;2.00;;;6.10;99.90;;;;;;4900465;29;20052;-91
2022/04/10 08:27:27;;;;;;;9.70;2.13;;;5.10;99.90;;;;;;4898100;29;20047;-90
2022/04/10 08:30:12;;;;;;;;;;;5.50;99.90;;;;;;4897911;29;20048;-89
2022/04/10 08:33:01;;;;;;;13.07;2.20;;;7.10;99.90;;;;;;4897682;29;20446;-89
2022/04/10 08:35:27;;;;;;;8.83;2.13;;;6.50;99.90;;;;;;4897633;29;20048;-88
2022/04/10 08:38:02;;;;;;;7.70;1.87;;;6.60;99.90;;;;;;4880177;29;20056;-90
2022/04/10 08:40:45;;;;;;;8.57;2.10;;;5.40;99.90;;;;;;4881110;29;20052;-90
2022/04/10 08:43:31;;;;;;;9.30;2.10;;;6.30;99.90;;;;;;4898040;29;20461;-90
2022/04/10 08:45:58;;;;;;;8.33;1.87;;;6.10;99.90;;;;;;4913495;23;20056;-90
2022/04/10 08:48:39;;;;;;;7.00;1.90;;;6.40;99.90;;;;;;4916704;29;20094;-94
2022/04/10 08:51:21;;;;;;;8.07;1.87;;;6.30;99.90;;;;;;4916435;29;20044;-94
2022/04/10 08:53:47;;;;;;;10.50;2.20;;;6.60;99.90;;;;;;4921428;29;20044;-94
2022/04/10 08:56:25;;;;;;;8.03;1.90;;;6.60;99.90;;;;;;4917823;29;20036;-92
2022/04/10 08:58:50;;;;;;;7.90;1.77;;;6.80;99.90;;;;;;4916507;29;20052;-92
2022/04/10 09:01:31;;;;;;;9.13;2.20;;;7.20;99.90;;;;;;4915610;29;20043;-93
2022/04/10 09:03:57;;;;;;;10.27;2.00;;;6.90;99.90;;;;;;4900156;29;20045;-90
2022/04/10 09:06:41;;;;;;;10.47;2.40;;;6.90;99.90;;;;;;4919340;29;20044;-86
2022/04/10 09:09:25;;;;;;;9.43;1.90;;;7.00;99.90;;;;;;4929481;29;20523;-88
2022/04/10 09:11:55;;;;;;;9.60;1.80;;;8.30;99.90;;;;;;4929018;23;20094;-89
2022/04/10 09:14:33;;;;;;;9.50;1.90;;;7.60;99.90;;;;;;4920021;23;20091;-89
2022/04/10 09:17:19;;;;;;;11.60;2.10;;;9.10;99.90;;;;;;4900773;29;20104;-92
2022/04/10 09:19:50;;;;;;;9.87;2.30;;;9.10;99.90;;;;;;4900831;29;20381;-89
2022/04/10 09:22:48;;;;;;;11.83;2.37;;;7.90;99.90;;;;;;4912779;23;20500;-93
2022/04/10 09:25:26;;;;;;;7.47;1.90;;;7.40;99.90;;;;;;4896779;29;20051;-89
2022/04/10 09:27:58;;;;;;;7.47;1.87;;;9.10;99.90;;;;;;4898098;29;20040;-89
2022/04/10 09:30:42;;;;;;;7.83;2.40;;;9.20;99.90;;;;;;4899428;29;20040;-89
2022/04/10 09:33:19;;;;;;;9.07;2.00;;;8.90;99.90;;;;;;4897851;29;20080;-89
2022/04/10 09:36:04;;;;;;;10.60;2.27;;;8.10;99.90;;;;;;4939583;23;20376;-90
2022/04/10 09:47:07;;;;;;;8.87;2.27;;;8.00;99.90;;;;;;5099066;23;20064;-96
2022/04/10 10:02:33;;;;;;;9.43;2.10;;;8.50;99.90;;;;;;4947385;23;20060;-89
2022/04/10 10:05:38;;;;;;;10.17;2.50;;;8.20;99.90;;;;;;4920161;23;20059;-92
2022/04/10 10:14:53;;;;;;;11.10;2.15;;;8.70;99.90;;;;;;4054269;23;20053;-92
2022/04/10 10:18:09;;;;;;;12.82;2.55;;;8.60;99.90;;;;;;4897237;29;20060;-88
2022/04/10 10:23:53;;;;;;;8.10;1.70;;;8.60;99.90;;;;;;4897345;29;20053;-89
2022/04/10 10:27:02;;;;;;;9.20;1.90;;;7.70;99.90;;;;;;4883097;29;20505;-89
2022/04/10 10:30:27;;;;;;;8.13;2.17;;;8.70;99.90;;;;;;4882394;29;20048;-90
2022/04/10 10:35:50;;;;;;;7.88;1.75;;;9.10;99.90;;;;;;4949940;23;20091;-89
2022/04/10 10:38:33;;;;;;;7.97;1.90;;;8.90;99.90;;;;;;4882812;29;20048;-87
2022/04/10 10:41:24;;;;;;;8.27;1.92;;;8.60;99.90;;;;;;4899369;29;20074;-87
2022/04/10 10:44:08;;;;;;;8.70;1.63;;;9.10;99.90;;;;;;4898399;29;20056;-87
2022/04/10 10:47:00;;;;;;;6.38;1.50;;;9.40;99.90;;;;;;4882950;29;20052;-86
2022/04/10 10:49:45;;;;;;;5.60;1.60;;;9.80;99.90;;;;;;4899112;29;20048;-86
2022/04/10 10:52:13;;;;;;;8.15;2.10;;;9.90;99.90;;;;;;4898544;29;20051;-86
2022/04/10 10:54:58;;;;;;;9.10;1.85;;;9.60;99.90;;;;;;4900019;29;20044;-90
2022/04/10 10:57:42;;;;;;;9.75;1.90;;;9.30;99.90;;;;;;4882349;29;20083;-89
2022/04/10 11:00:19;;;;;;;8.60;2.00;;;8.70;99.90;;;;;;4883850;29;20118;-89
2022/04/10 11:02:58;;;;;;;11.03;1.90;;;8.70;99.90;;;;;;4881773;29;20374;-92
2022/04/10 11:05:24;;;;;;;8.97;2.10;;;8.20;99.90;;;;;;4899040;29;20052;-92
2022/04/10 11:08:07;;;;;;;8.23;1.90;;;7.90;99.90;;;;;;4898425;29;20048;-88
2022/04/10 11:10:52;;;;;;;10.43;2.30;;;7.90;99.90;;;;;;4898813;29;20060;-89
2022/04/10 11:13:19;;;;;;;9.27;2.03;;;7.70;99.90;;;;;;4881685;29;20053;-89
2022/04/10 11:16:10;;;;;;;10.20;2.10;;;8.50;99.90;;;;;;4898294;29;20049;-89
2022/04/10 11:19:00;;;;;;;10.97;2.77;;;10.20;99.90;;;;;;4880883;29;20493;-89
2022/04/10 11:21:44;;;;;;;7.57;1.95;;;9.50;99.90;;;;;;4897743;29;20048;-88
2022/04/10 11:24:22;;;;;;;6.57;1.52;;;10.80;99.90;;;;;;4881891;29;20076;-89
2022/04/10 11:27:05;;;;;;;8.45;2.10;;;9.90;99.90;;;;;;4897259;29;20378;-88
2022/04/10 11:29:55;;;;;;;7.80;1.92;;;10.50;99.90;;;;;;4880320;29;20040;-88
2022/04/10 11:32:22;;;;;;;7.82;1.80;;;10.00;99.90;;;;;;4896878;29;20824;-86
2022/04/10 11:34:59;;;;;;;8.98;1.77;;;10.40;99.90;;;;;;4877804;29;20052;-86
2022/04/10 11:37:36;;;;;;;9.80;1.77;;;11.00;99.90;;;;;;4879084;29;20053;-86
2022/04/10 11:40:02;;;;;;;7.50;1.80;;;9.90;99.90;;;;;;4877852;29;20040;-87
2022/04/10 11:42:29;;;;;;;7.43;1.73;;;9.80;99.90;;;;;;4879046;29;20041;-93
2022/04/10 11:44:58;;;;;;;10.10;1.90;;;9.60;99.90;;;;;;4877320;29;20413;-89
2022/04/10 11:47:25;;;;;;;8.13;2.03;;;9.50;99.90;;;;;;4877830;29;20049;-90
2022/04/10 11:50:04;;;;;;;9.43;2.35;;;9.90;99.90;;;;;;4877957;29;20045;-91
2022/04/10 11:52:39;;;;;;;7.82;2.20;;;10.60;99.90;;;;;;4880550;29;20083;-93
2022/04/10 11:55:07;;;;;;;7.53;2.10;;;10.90;99.90;;;;;;4878380;29;20049;-89
2022/04/10 11:57:43;;;;;;;;;;;;;;;;;;;;;
2022/04/10 12:04:06;;;;;;;8.63;1.73;;;11.10;99.90;;;;;;4880795;29;20052;-89
2022/04/10 12:06:35;;;;;;;7.22;1.63;;;10.70;99.90;;;;;;4898486;29;20136;-89
2022/04/10 12:09:07;;;;;;;7.85;2.55;;;10.30;99.90;;;;;;4898789;29;20108;-90
2022/04/10 12:11:43;;;;;;;9.30;1.83;;;10.50;99.90;;;;;;4899791;29;20055;-90
2022/04/10 12:14:22;;;;;;;6.07;1.95;;;10.70;99.90;;;;;;4898260;29;20041;-89
2022/04/10 12:16:48;;;;;;;5.53;1.80;;;11.10;99.90;;;;;;4896671;29;20064;-89
2022/04/10 12:19:45;;;;;;;8.60;2.22;;;11.00;99.90;;;;;;4896639;29;20049;-88
2022/04/10 12:22:22;;;;;;;9.40;1.90;;;10.70;99.90;;;;;;4897468;29;20048;-89
2022/04/10 12:24:48;;;;;;;6.97;1.70;;;10.00;99.90;;;;;;4897669;29;20048;-89
2022/04/10 12:27:19;;;;;;;9.63;1.90;;;10.60;99.90;;;;;;4897928;29;20055;-89
2022/04/10 12:29:55;;;;;;;8.60;1.90;;;10.10;99.90;;;;;;4896233;29;20056;-89
2022/04/10 12:32:25;;;;;;;6.07;1.60;;;10.40;99.90;;;;;;4896772;29;20080;-89
2022/04/10 12:35:18;;;;;;;7.28;1.75;;;10.80;99.90;;;;;;4897724;29;20045;-89
2022/04/10 12:37:59;;;;;;;7.18;1.70;;;11.00;99.90;;;;;;4897220;29;20511;-88
2022/04/10 12:40:27;;;;;;;6.40;1.63;;;11.00;99.90;;;;;;4897375;29;20049;-88
2022/04/10 12:43:00;;;;;;;8.70;1.95;;;10.70;99.90;;;;;;4896683;29;20060;-88
2022/04/10 12:45:36;;;;;;;8.30;3.27;;;11.70;99.90;;;;;;4897272;29;20059;-89
2022/04/10 12:48:26;;;;;;;10.38;3.38;;;11.50;99.90;;;;;;4897170;29;20960;-89
2022/04/10 12:51:06;;;;;;;6.40;1.60;;;11.50;99.90;;;;;;4896653;29;20100;-89
2022/04/10 12:53:39;;;;;;;7.55;1.95;;;12.70;99.90;;;;;;4897539;29;20560;-88
2022/04/10 12:56:23;;;;;;;6.38;1.60;;;13.10;99.90;;;;;;4902631;23;20424;-89
2022/04/10 12:58:58;;;;;;;8.52;1.80;;;11.90;99.90;;;;;;4895593;29;20048;-88
2022/04/10 13:02:03;;;;;;;8.95;1.98;;;12.00;99.90;;;;;;4896583;29;20060;-88
2022/04/10 13:04:40;;;;;;;8.60;2.00;;;11.00;99.90;;;;;;4843593;29;20515;-89
2022/04/10 13:07:16;;;;;;;6.55;1.77;;;11.40;99.90;;;;;;4842576;29;20088;-89
2022/04/10 13:09:41;;;;;;;7.90;2.00;;;11.20;99.90;;;;;;4842923;29;20050;-89
2022/04/10 13:12:07;;;;;;;6.35;1.70;;;11.30;99.90;;;;;;4859910;29;20062;-89
2022/04/10 13:14:50;;;;;;;8.82;2.55;;;11.60;99.90;;;;;;4896377;29;20051;-89
2022/04/10 13:17:16;;;;;;;12.65;4.78;;;11.40;99.90;;;;;;4896572;29;20048;-89
2022/04/10 13:19:42;;;;;;;10.55;3.45;;;11.40;99.90;;;;;;4896428;29;20107;-88
2022/04/10 13:22:07;;;;;;;9.20;2.47;;;11.10;99.90;;;;;;4897461;29;20055;-89
2022/04/10 13:24:43;;;;;;;13.05;4.60;;;11.20;99.90;;;;;;4895987;29;20077;-88
2022/04/10 13:27:12;;;;;;;7.55;2.60;;;10.20;99.90;;;;;;4896340;29;20060;-88
2022/04/10 13:29:40;;;;;;;9.57;2.70;;;10.20;99.90;;;;;;4896083;29;20438;-88
2022/04/10 13:32:12;;;;;;;12.70;4.60;;;10.40;99.90;;;;;;4894623;29;20053;-88
2022/04/10 13:34:40;;;;;;;8.13;1.92;;;10.80;99.90;;;;;;4897131;29;20044;-88
2022/04/10 13:37:12;;;;;;;6.70;1.70;;;10.10;99.90;;;;;;4896237;29;20088;-88
2022/04/10 13:39:38;;;;;;;7.43;1.88;;;10.40;99.90;;;;;;4896730;29;20041;-88
2022/04/10 13:42:04;;;;;;;6.05;1.60;;;10.10;99.90;;;;;;4895632;29;20064;-89
2022/04/10 13:44:42;;;;;;;6.18;1.77;;;10.30;99.90;;;;;;4897334;29;20048;-88
2022/04/10 13:47:22;;;;;;;5.68;1.67;;;10.50;99.90;;;;;;4895955;29;20488;-88
2022/04/10 13:49:50;;;;;;;6.80;1.63;;;10.60;99.90;;;;;;4896723;29;20101;-87
2022/04/10 13:52:28;;;;;;;8.27;2.00;;;10.90;99.90;;;;;;4898577;29;20046;-88
2022/04/10 13:54:54;;;;;;;7.30;1.80;;;11.20;99.90;;;;;;4898324;29;20080;-88
2022/04/10 13:57:27;;;;;;;5.45;1.70;;;11.70;99.90;;;;;;4919341;29;20056;-88
2022/04/10 13:59:56;;;;;;;9.10;1.80;;;11.70;99.90;;;;;;4918576;29;20392;-88
2022/04/10 14:02:47;;;;;;;7.65;1.75;;;12.30;99.90;;;;;;4902318;29;20135;-89
2022/04/10 14:05:22;;;;;;;7.53;2.00;;;13.10;99.90;;;;;;4883644;29;20060;-89
2022/04/10 14:07:50;;;;;;;8.52;2.05;;;11.90;99.90;;;;;;4901277;29;20044;-88